• Join FlightAware (Why Join?)
  • Login
  • US Flag 
10:24AM EDT


 

Airport Tracker/Info


-or-


 

Live Flight TrackerFlight Track Log ✈ SKW4664 ✈ 30-Sep-2013 ✈ KIAD - KMSP

Flight Track Log - Related Links

Times and Time Zones

All times are in EDT time to prevent confusion due to time zone crossing. See the SKW4664 flight status page for this flight to view local times or setup timezone preferences in your user account.

Time Position Orientation Groundspeed Altitude Reporting Facility
EDT Latitude Longitude Course Direction KTS MPH feet Rate Location/Type
12:18PM 38.8833 -77.4667 270° West 206 237 2,500  Level Potomac TRACON
12:19PM 38.8033 -77.5628 223° Southwest 262 302 6,100 2,400 Climbing Washington Center
12:20PM 39.1176 -77.8125 303° West  Level Estimated
12:20PM 38.7936 -77.6558 262° West 259 298 8,700  Level Washington Center
12:21PM 39.1741 -77.9304 277° West  Level Estimated
12:22PM 39.2305 -78.0485 270° West  Level Estimated
12:22PM 38.8272 -77.7633 292° West 265 305 11,400  Level Washington Center
12:22PM 38.8586 -77.8575 293° West 298 343 13,400 2,160 Climbing Washington Center
12:23PM 39.2868 -78.1667 270° West  Level Estimated
12:23PM 38.8917 -77.9839 289° West 322 371 15,800  Level Washington Center
12:25PM 38.9247 -78.0997 290° West 343 395 17,800 1,980 Climbing Washington Center
12:25PM 38.9597 -78.2211 290° West 355 409 19,800 1,860 Climbing Washington Center
12:26PM 38.9692 -78.3522 275° West 355 409 21,500 1,680 Climbing Washington Center
12:27PM 38.9786 -78.4889 275° West 376 433 23,300 1,680 Climbing Washington Center
12:29PM 38.9856 -78.6253 274° West 386 444 25,000 1,500 Climbing Washington Center
12:30PM 38.9967 -78.7647 276° West 393 452 26,400 1,380 Climbing Washington Center
12:30PM 39.0050 -78.9147 274° West 403 464 27,700 1,320 Climbing Washington Center
12:31PM 39.0136 -79.0592 274° West 409 471 29,000 1,200 Climbing Washington Center
12:32PM 39.0217 -79.2094 274° West 415 478 30,200 1,080 Climbing Washington Center
12:34PM 39.0339 -79.3569 276° West 420 483 31,300 1,020 Climbing Washington Center
12:34PM 39.0414 -79.5097 274° West 426 490 32,300 960 Climbing Washington Center
12:35PM 39.0550 -79.6628 277° West 426 490 33,200 780 Climbing Washington Center
12:36PM 39.0622 -79.8156 274° West 431 496 33,900 300 Climbing Washington Center
12:38PM 39.0708 -79.9953 274° West 447 514 34,000 120 Climbing Indianapolis Center
12:39PM 39.0808 -80.1594 275° West 458 527 34,200 540 Climbing Indianapolis Center
12:40PM 39.0911 -80.3247 275° West 463 533 35,200 840 Climbing Indianapolis Center
12:41PM 39.1025 -80.5194 274° West 458 527 36,000 360 Climbing Indianapolis Center
12:42PM 39.1281 -80.6789 282° West 462 532 36,000  Level Indianapolis Center
12:43PM 39.1861 -80.8178 298° West 446 513 36,000  Level Indianapolis Center
12:44PM 39.2478 -80.9564 300° West 447 514 36,000  Level Indianapolis Center
12:45PM 39.3086 -81.0944 300° West 446 513 36,000  Level Indianapolis Center
12:46PM 39.3689 -81.2331 299° West 444 511 36,000  Level Indianapolis Center
12:47PM 39.4408 -81.3978 300° West 442 509 36,000  Level Indianapolis Center
12:48PM 39.5000 -81.5358 299° West 441 507 36,000  Level Indianapolis Center
12:49PM 39.5586 -81.6733 299° West 439 505 36,000  Level Indianapolis Center
12:50PM 39.6172 -81.8122 299° West 440 506 36,000  Level Indianapolis Center
12:51PM 39.6761 -81.9497 299° West 437 503 36,000  Level Indianapolis Center
12:52PM 39.7364 -82.0894 299° West 436 502 36,000  Level Indianapolis Center
12:53PM 39.7933 -82.2264 298° West 433 498 36,000  Level Indianapolis Center
12:54PM 39.8625 -82.3900 299° West 432 497 36,000  Level Indianapolis Center
12:55PM 39.9200 -82.5283 298° West 436 502 36,000  Level Indianapolis Center
12:56PM 39.9764 -82.6650 298° West 431 496 36,000  Level Indianapolis Center
12:57PM 40.0322 -82.8003 298° West 429 494 36,000  Level Indianapolis Center
12:58PM 40.0889 -82.9358 299° West 428 493 36,000  Level Indianapolis Center
12:59PM 40.1453 -83.0717 299° West 429 494 36,000  Level Indianapolis Center
01:00PM 40.2111 -83.2364 298° West 430 495 36,000  Level Indianapolis Center
01:01PM 40.2675 -83.3711 299° West 428 493 36,000  Level Indianapolis Center
01:02PM 40.3217 -83.5078 298° West 426 490 36,000  Level Indianapolis Center
01:03PM 40.3769 -83.6439 298° West 427 491 36,000  Level Indianapolis Center
01:05PM 40.4314 -83.7806 298° West 426 490 36,000  Level Indianapolis Center
01:06PM 40.4969 -83.9442 298° West 425 489 36,000  Level Indianapolis Center
01:07PM 40.5508 -84.0781 298° West 420 483 36,000  Level Indianapolis Center
01:08PM 40.6028 -84.2136 297° West 417 480 36,000  Level Indianapolis Center
01:09PM 40.6564 -84.3492 298° West 417 480 36,000  Level Indianapolis Center
01:10PM 40.7092 -84.4839 297° West 417 480 36,000  Level Indianapolis Center
01:11PM 40.7667 -84.6311 297° West 413 475 36,000  Level Chicago Center
01:12PM 40.8181 -84.7664 297° West 413 475 36,000  Level Chicago Center
01:13PM 40.8739 -84.8992 299° West 413 475 36,000  Level Chicago Center
01:14PM 40.9808 -84.9594 337° Northwest 425 489 36,000  Level Chicago Center
01:15PM 41.1006 -84.9578 North 427 491 36,000  Level Chicago Center
01:16PM 41.2425 -84.9711 356° North 429 494 36,000  Level Chicago Center
01:17PM 41.3397 -85.0481 329° Northwest 411 473 36,000  Level Chicago Center
01:18PM 41.4114 -85.1675 309° West 412 474 36,000  Level Chicago Center
01:19PM 41.4825 -85.2869 308° West 410 472 36,000  Level Chicago Center
01:20PM 41.5531 -85.4067 308° West 408 470 36,000  Level Chicago Center
01:21PM 41.6261 -85.5267 309° West 411 473 36,000  Level Chicago Center
01:22PM 41.7022 -85.6553 308° West 413 475 36,000  Level Chicago Center
01:23PM 41.7728 -85.7742 309° West 410 472 36,000  Level Chicago Center
01:24PM 41.8417 -85.8922 308° West 404 465 36,000  Level Chicago Center
01:25PM 41.9253 -86.0347 308° West 406 467 36,000  Level Chicago Center
01:26PM 41.9950 -86.1533 308° West 405 466 36,000  Level Chicago Center
01:27PM 42.0625 -86.2714 308° West 398 458 36,000  Level Chicago Center
01:28PM 42.1303 -86.3897 308° West 399 459 36,000  Level Chicago Center
01:29PM 42.1983 -86.5067 308° West 396 456 36,000  Level Chicago Center
01:30PM 42.2667 -86.6256 308° West 400 460 36,000  Level Chicago Center
01:31PM 42.3408 -86.7536 308° West 407 468 36,000  Level Chicago Center
01:32PM 42.4217 -86.8936 308° West 400 460 36,000  Level Chicago Center
01:33PM 42.4878 -87.0119 307° West 397 457 36,000  Level Chicago Center
01:34PM 42.5517 -87.1253 307° West 386 444 36,000  Level Chicago Center
01:35PM 42.6258 -87.2586 307° West 396 456 36,000  Level Chicago Center
01:37PM 42.6922 -87.3775 307° West 394 453 36,000  Level Chicago Center
01:38PM 42.7550 -87.4892 307° West 393 452 36,000  Level Chicago Center
01:39PM 42.8208 -87.6061 308° West 391 450 36,000  Level Chicago Center
01:40PM 42.8986 -87.7486 307° West 389 448 36,000  Level Chicago Center
01:41PM 42.9631 -87.8639 307° West 384 442 36,000  Level Chicago Center
01:42PM 43.0261 -87.9794 307° West 380 437 36,000  Level Chicago Center
01:43PM 43.0897 -88.0942 307° West 377 434 36,000  Level Chicago Center
01:44PM 43.1506 -88.2078 306° West 369 425 36,000  Level Chicago Center
01:45PM 43.2128 -88.3225 307° West 372 428 36,000  Level Chicago Center
01:46PM 43.2864 -88.4600 306° West 369 425 36,000  Level Chicago Center
01:47PM 43.3486 -88.5800 306° West 375 432 36,000  Level Chicago Center
01:48PM 43.4147 -88.6975 308° West 380 437 36,000  Level Chicago Center
01:49PM 43.4783 -88.8147 307° West 378 435 36,000  Level Chicago Center
01:50PM 43.5411 -88.9322 306° West 380 437 36,000  Level Chicago Center
01:51PM 43.6028 -89.0497 306° West 378 435 36,000  Level Chicago Center
01:52PM 43.6650 -89.1667 306° West 379 436 36,000  Level Chicago Center
01:53PM 43.7286 -89.2858 306° West 382 440 36,000  Level Chicago Center
01:54PM 43.8008 -89.4272 305° West 379 436 36,000 -60 Level Chicago Center
01:55PM 43.8647 -89.5483 306° West 387 445 35,900 -420 Descending Chicago Center
01:56PM 43.9264 -89.6667 306° West 381 438 35,200 -780 Descending Chicago Center
01:57PM 43.9872 -89.7853 306° West 379 436 34,400 -600 Descending Chicago Center
01:58PM 44.0494 -89.9064 306° West 386 444 34,000 -240 Descending Chicago Center
01:59PM 44.1283 -90.0553 306° West 399 459 34,000  Level Minneapolis Center
02:00PM 44.1906 -90.1831 304° West 400 460 34,000  Level Minneapolis Center
02:01PM 44.2467 -90.3169 300° West 402 463 34,000  Level Minneapolis Center
02:02PM 44.3036 -90.4511 301° West 401 461 34,000  Level Minneapolis Center
02:03PM 44.3611 -90.5825 302° West 399 459 34,000  Level Minneapolis Center
02:05PM 44.4264 -90.7431 300° West 400 460 34,000  Level Minneapolis Center
02:06PM 44.4833 -90.8742 301° West 396 456 34,000  Level Minneapolis Center
02:07PM 44.5303 -90.9919 299° West 394 453 34,000 -780 Level Minneapolis Center
02:08PM 44.5956 -91.1508 300° West 393 452 32,400 -2,100 Descending Minneapolis Center
02:09PM 44.6500 -91.2861 300° West 397 457 29,800 -2,580 Descending Minneapolis Center
02:10PM 44.7067 -91.4225 300° West 403 464 27,200 -2,520 Descending Minneapolis Center
02:11PM 44.7606 -91.5572 299° West 400 460 24,600 -2,580 Descending Minneapolis Center
02:12PM 44.8153 -91.6953 299° West 402 463 21,900 -2,580 Descending Minneapolis Center
02:13PM 44.8717 -91.8344 300° West 409 471 19,300 -2,820 Descending Minneapolis Center
02:14PM 44.9325 -91.9897 299° West 380 437 16,100 -2,760 Descending Minneapolis Center
02:15PM 44.9819 -92.1133 300° West 364 419 13,700 -2,340 Descending Minneapolis Center
02:16PM 45.0319 -92.2408 299° West 348 400 11,300 -1,320 Descending Minneapolis Center
02:17PM 45.0381 -92.3586 274° West 341 392 11,000 -180 Descending Minneapolis Center
02:18PM 45.0183 -92.4878 258° West 336 387 11,000  Level Minneapolis Center
02:19PM 44.9942 -92.6408 257° West 335 386 11,000  Level Minneapolis Center
02:20PM 44.9728 -92.7692 257° West 337 388 11,000  Level Minneapolis Center
02:21PM 44.9525 -92.8986 258° West 339 390 11,000 -420 Level Minneapolis Center
02:22PM 44.9344 -93.0086 257° West 292 336 10,200 -1,200 Descending Minneapolis Center
02:23PM 44.9447 -93.1014 279° West 266 306 8,600 -1,260 Descending Minneapolis Center
02:24PM 44.9989 -93.2017 307° West 271 312 7,700 -1,260 Descending Minneapolis Center
02:25PM 45.0450 -93.2847 308° West 271 312 6,000 -1,380 Descending Minneapolis Center
02:26PM 45.0850 -93.3686 304° West 261 300 4,900 -1,020 Descending Minneapolis Center
02:27PM 45.0464 -93.3911 202° Southwest 188 216 4,000 -840 Descending Minneapolis Center
02:28PM 45.0011 -93.3494 147° Southeast 194 223 3,200 -660 Descending Minneapolis Center
02:29PM 44.9583 -93.3144 150° Southeast 180 207 2,700 -660 Descending Minneapolis Center
02:30PM 44.9172 -93.2772 147° Southeast 144 166 1,900 -780 Descending Minneapolis Center
02:31PM 44.8975 -93.2292 120° Southeast 140 161 1,100 -780 Descending Minneapolis Center